sensor_id;sensor_type;location;lat;lon;timestamp;P1;durP1;ratioP1;P2;durP2;ratioP2
5662;SDS011;2854;42.692;23.364;2023-04-07T00:01:14;12.87;;;5.83;;
5662;SDS011;2854;42.692;23.364;2023-04-07T00:03:40;8.60;;;7.07;;
5662;SDS011;2854;42.692;23.364;2023-04-07T00:06:05;17.77;;;6.30;;
5662;SDS011;2854;42.692;23.364;2023-04-07T00:08:30;10.23;;;7.00;;
5662;SDS011;2854;42.692;23.364;2023-04-07T00:10:55;13.57;;;7.40;;
5662;SDS011;2854;42.692;23.364;2023-04-07T00:13:22;11.20;;;6.07;;
5662;SDS011;2854;42.692;23.364;2023-04-07T00:15:47;5.50;;;4.80;;
5662;SDS011;2854;42.692;23.364;2023-04-07T00:18:13;12.73;;;6.07;;
5662;SDS011;2854;42.692;23.364;2023-04-07T00:20:38;5.77;;;4.97;;
5662;SDS011;2854;42.692;23.364;2023-04-07T00:23:04;9.47;;;6.27;;
5662;SDS011;2854;42.692;23.364;2023-04-07T00:25:30;11.47;;;7.00;;
5662;SDS011;2854;42.692;23.364;2023-04-07T00:27:55;8.13;;;5.37;;
5662;SDS011;2854;42.692;23.364;2023-04-07T00:30:20;5.93;;;5.17;;
5662;SDS011;2854;42.692;23.364;2023-04-07T00:32:45;12.97;;;6.67;;
5662;SDS011;2854;42.692;23.364;2023-04-07T00:35:11;8.80;;;5.60;;
5662;SDS011;2854;42.692;23.364;2023-04-07T00:37:36;5.93;;;5.30;;
5662;SDS011;2854;42.692;23.364;2023-04-07T00:40:01;6.17;;;5.53;;
5662;SDS011;2854;42.692;23.364;2023-04-07T00:42:28;11.73;;;6.00;;
5662;SDS011;2854;42.692;23.364;2023-04-07T00:44:53;10.20;;;5.47;;
5662;SDS011;2854;42.692;23.364;2023-04-07T00:47:18;5.77;;;4.70;;
5662;SDS011;2854;42.692;23.364;2023-04-07T00:49:44;6.90;;;5.13;;
5662;SDS011;2854;42.692;23.364;2023-04-07T00:52:09;9.93;;;4.90;;
5662;SDS011;2854;42.692;23.364;2023-04-07T00:54:36;5.77;;;4.40;;
5662;SDS011;2854;42.692;23.364;2023-04-07T00:57:01;8.70;;;5.40;;
5662;SDS011;2854;42.692;23.364;2023-04-07T00:59:27;7.43;;;4.57;;
5662;SDS011;2854;42.692;23.364;2023-04-07T01:02:03;5.70;;;4.90;;
5662;SDS011;2854;42.692;23.364;2023-04-07T01:04:31;6.00;;;4.73;;
5662;SDS011;2854;42.692;23.364;2023-04-07T01:07:03;7.03;;;5.53;;
5662;SDS011;2854;42.692;23.364;2023-04-07T01:09:53;5.07;;;4.57;;
5662;SDS011;2854;42.692;23.364;2023-04-07T01:12:17;5.10;;;4.60;;
5662;SDS011;2854;42.692;23.364;2023-04-07T01:14:46;5.80;;;4.30;;
5662;SDS011;2854;42.692;23.364;2023-04-07T01:17:15;4.70;;;4.23;;
5662;SDS011;2854;42.692;23.364;2023-04-07T01:22:26;6.50;;;4.33;;
5662;SDS011;2854;42.692;23.364;2023-04-07T01:25:09;8.10;;;5.30;;
5662;SDS011;2854;42.692;23.364;2023-04-07T01:30:16;7.40;;;5.97;;
5662;SDS011;2854;42.692;23.364;2023-04-07T01:32:42;6.03;;;5.07;;
5662;SDS011;2854;42.692;23.364;2023-04-07T01:35:10;8.17;;;5.53;;
5662;SDS011;2854;42.692;23.364;2023-04-07T01:37:36;5.77;;;4.47;;
5662;SDS011;2854;42.692;23.364;2023-04-07T01:40:02;10.13;;;6.47;;
5662;SDS011;2854;42.692;23.364;2023-04-07T01:42:27;7.53;;;5.13;;
5662;SDS011;2854;42.692;23.364;2023-04-07T01:44:53;12.53;;;6.60;;
5662;SDS011;2854;42.692;23.364;2023-04-07T01:47:19;11.30;;;6.63;;
5662;SDS011;2854;42.692;23.364;2023-04-07T01:49:45;5.47;;;4.93;;
5662;SDS011;2854;42.692;23.364;2023-04-07T01:52:11;14.37;;;6.17;;
5662;SDS011;2854;42.692;23.364;2023-04-07T01:54:36;10.03;;;5.13;;
5662;SDS011;2854;42.692;23.364;2023-04-07T01:57:02;11.53;;;6.97;;
5662;SDS011;2854;42.692;23.364;2023-04-07T01:59:27;13.30;;;6.27;;
5662;SDS011;2854;42.692;23.364;2023-04-07T02:01:52;6.50;;;5.90;;
5662;SDS011;2854;42.692;23.364;2023-04-07T02:06:48;7.10;;;5.17;;
5662;SDS011;2854;42.692;23.364;2023-04-07T02:09:14;12.67;;;5.07;;
5662;SDS011;2854;42.692;23.364;2023-04-07T02:11:40;7.70;;;5.77;;
5662;SDS011;2854;42.692;23.364;2023-04-07T02:14:06;14.10;;;6.90;;
5662;SDS011;2854;42.692;23.364;2023-04-07T02:16:33;12.13;;;5.40;;
5662;SDS011;2854;42.692;23.364;2023-04-07T02:18:59;8.37;;;5.43;;
5662;SDS011;2854;42.692;23.364;2023-04-07T02:21:26;7.63;;;4.43;;
5662;SDS011;2854;42.692;23.364;2023-04-07T02:23:52;6.87;;;5.03;;
5662;SDS011;2854;42.692;23.364;2023-04-07T02:26:17;11.83;;;5.67;;
5662;SDS011;2854;42.692;23.364;2023-04-07T02:28:42;10.73;;;5.40;;
5662;SDS011;2854;42.692;23.364;2023-04-07T02:31:08;13.80;;;6.77;;
5662;SDS011;2854;42.692;23.364;2023-04-07T02:33:33;10.13;;;6.13;;
5662;SDS011;2854;42.692;23.364;2023-04-07T02:35:58;5.30;;;4.67;;
5662;SDS011;2854;42.692;23.364;2023-04-07T02:38:23;11.10;;;6.57;;
5662;SDS011;2854;42.692;23.364;2023-04-07T02:40:48;6.10;;;4.90;;
5662;SDS011;2854;42.692;23.364;2023-04-07T02:43:14;8.40;;;5.40;;
5662;SDS011;2854;42.692;23.364;2023-04-07T02:45:40;10.67;;;5.87;;
5662;SDS011;2854;42.692;23.364;2023-04-07T02:48:05;12.80;;;6.83;;
5662;SDS011;2854;42.692;23.364;2023-04-07T02:50:31;12.00;;;6.13;;
5662;SDS011;2854;42.692;23.364;2023-04-07T02:52:56;6.07;;;5.50;;
5662;SDS011;2854;42.692;23.364;2023-04-07T02:55:21;8.50;;;5.40;;
5662;SDS011;2854;42.692;23.364;2023-04-07T02:57:46;8.90;;;5.97;;
5662;SDS011;2854;42.692;23.364;2023-04-07T03:00:13;8.80;;;6.13;;
5662;SDS011;2854;42.692;23.364;2023-04-07T03:02:38;6.17;;;4.87;;
5662;SDS011;2854;42.692;23.364;2023-04-07T03:05:04;9.53;;;6.97;;
5662;SDS011;2854;42.692;23.364;2023-04-07T03:07:29;7.47;;;5.83;;
5662;SDS011;2854;42.692;23.364;2023-04-07T03:09:56;11.63;;;4.50;;
5662;SDS011;2854;42.692;23.364;2023-04-07T03:12:21;6.83;;;4.53;;
5662;SDS011;2854;42.692;23.364;2023-04-07T03:14:46;6.73;;;5.20;;
5662;SDS011;2854;42.692;23.364;2023-04-07T03:17:11;8.30;;;4.57;;
5662;SDS011;2854;42.692;23.364;2023-04-07T03:19:37;6.50;;;5.40;;
5662;SDS011;2854;42.692;23.364;2023-04-07T03:22:02;5.90;;;4.03;;
5662;SDS011;2854;42.692;23.364;2023-04-07T03:24:27;6.53;;;5.50;;
5662;SDS011;2854;42.692;23.364;2023-04-07T03:26:52;7.97;;;5.80;;
5662;SDS011;2854;42.692;23.364;2023-04-07T03:29:18;11.37;;;4.83;;
5662;SDS011;2854;42.692;23.364;2023-04-07T03:31:43;8.70;;;4.37;;
5662;SDS011;2854;42.692;23.364;2023-04-07T03:34:08;9.23;;;5.97;;
5662;SDS011;2854;42.692;23.364;2023-04-07T03:36:34;9.27;;;5.13;;
5662;SDS011;2854;42.692;23.364;2023-04-07T03:38:59;5.53;;;4.80;;
5662;SDS011;2854;42.692;23.364;2023-04-07T03:41:25;10.17;;;5.03;;
5662;SDS011;2854;42.692;23.364;2023-04-07T03:43:50;10.73;;;6.53;;
5662;SDS011;2854;42.692;23.364;2023-04-07T03:46:15;7.17;;;5.00;;
5662;SDS011;2854;42.692;23.364;2023-04-07T03:48:40;19.97;;;7.63;;
5662;SDS011;2854;42.692;23.364;2023-04-07T03:51:06;20.60;;;7.03;;
5662;SDS011;2854;42.692;23.364;2023-04-07T03:53:31;12.20;;;7.40;;
5662;SDS011;2854;42.692;23.364;2023-04-07T03:55:56;19.53;;;10.90;;
5662;SDS011;2854;42.692;23.364;2023-04-07T03:58:22;27.30;;;10.00;;
5662;SDS011;2854;42.692;23.364;2023-04-07T04:00:47;32.50;;;15.93;;
5662;SDS011;2854;42.692;23.364;2023-04-07T04:03:12;24.37;;;14.80;;
5662;SDS011;2854;42.692;23.364;2023-04-07T04:05:37;30.50;;;14.00;;
5662;SDS011;2854;42.692;23.364;2023-04-07T04:08:03;24.30;;;9.20;;
5662;SDS011;2854;42.692;23.364;2023-04-07T04:10:28;16.57;;;9.77;;
5662;SDS011;2854;42.692;23.364;2023-04-07T04:12:53;19.57;;;10.27;;
5662;SDS011;2854;42.692;23.364;2023-04-07T04:15:19;17.10;;;9.10;;
5662;SDS011;2854;42.692;23.364;2023-04-07T04:17:44;14.87;;;8.63;;
5662;SDS011;2854;42.692;23.364;2023-04-07T04:20:09;18.20;;;9.90;;
5662;SDS011;2854;42.692;23.364;2023-04-07T04:22:35;28.50;;;9.40;;
5662;SDS011;2854;42.692;23.364;2023-04-07T04:25:00;12.80;;;7.00;;
5662;SDS011;2854;42.692;23.364;2023-04-07T04:27:25;15.10;;;8.87;;
5662;SDS011;2854;42.692;23.364;2023-04-07T04:29:51;13.27;;;8.20;;
5662;SDS011;2854;42.692;23.364;2023-04-07T04:32:16;16.40;;;7.00;;
5662;SDS011;2854;42.692;23.364;2023-04-07T04:34:45;16.60;;;7.53;;
5662;SDS011;2854;42.692;23.364;2023-04-07T04:37:10;16.50;;;7.43;;
5662;SDS011;2854;42.692;23.364;2023-04-07T04:39:35;10.17;;;7.87;;
5662;SDS011;2854;42.692;23.364;2023-04-07T04:42:01;13.60;;;7.27;;
5662;SDS011;2854;42.692;23.364;2023-04-07T04:44:27;11.00;;;9.10;;
5662;SDS011;2854;42.692;23.364;2023-04-07T04:46:54;10.53;;;7.63;;
5662;SDS011;2854;42.692;23.364;2023-04-07T04:49:19;17.30;;;8.60;;
5662;SDS011;2854;42.692;23.364;2023-04-07T04:51:44;14.43;;;8.57;;
5662;SDS011;2854;42.692;23.364;2023-04-07T04:54:09;12.40;;;7.50;;
5662;SDS011;2854;42.692;23.364;2023-04-07T04:56:35;13.00;;;7.50;;
5662;SDS011;2854;42.692;23.364;2023-04-07T04:59:01;13.20;;;7.37;;
5662;SDS011;2854;42.692;23.364;2023-04-07T05:01:26;15.80;;;10.00;;
5662;SDS011;2854;42.692;23.364;2023-04-07T05:03:51;21.13;;;10.50;;
5662;SDS011;2854;42.692;23.364;2023-04-07T05:06:17;13.90;;;10.50;;
5662;SDS011;2854;42.692;23.364;2023-04-07T05:08:42;12.53;;;8.57;;
5662;SDS011;2854;42.692;23.364;2023-04-07T05:11:07;13.50;;;8.00;;
5662;SDS011;2854;42.692;23.364;2023-04-07T05:13:33;27.03;;;13.60;;
5662;SDS011;2854;42.692;23.364;2023-04-07T05:15:58;49.83;;;22.90;;
5662;SDS011;2854;42.692;23.364;2023-04-07T05:18:23;54.60;;;23.90;;
5662;SDS011;2854;42.692;23.364;2023-04-07T05:20:49;24.23;;;12.77;;
5662;SDS011;2854;42.692;23.364;2023-04-07T05:23:14;23.60;;;12.20;;
5662;SDS011;2854;42.692;23.364;2023-04-07T05:25:39;18.67;;;10.17;;
5662;SDS011;2854;42.692;23.364;2023-04-07T05:28:04;16.10;;;9.70;;
5662;SDS011;2854;42.692;23.364;2023-04-07T05:30:30;21.53;;;9.10;;
5662;SDS011;2854;42.692;23.364;2023-04-07T05:32:55;40.30;;;12.30;;
5662;SDS011;2854;42.692;23.364;2023-04-07T05:35:20;17.70;;;10.37;;
5662;SDS011;2854;42.692;23.364;2023-04-07T05:37:46;20.20;;;10.17;;
5662;SDS011;2854;42.692;23.364;2023-04-07T05:40:11;17.10;;;8.70;;
5662;SDS011;2854;42.692;23.364;2023-04-07T05:42:36;20.47;;;10.87;;
5662;SDS011;2854;42.692;23.364;2023-04-07T05:45:02;16.70;;;10.20;;
5662;SDS011;2854;42.692;23.364;2023-04-07T05:47:27;13.97;;;10.30;;
5662;SDS011;2854;42.692;23.364;2023-04-07T05:49:53;18.37;;;9.23;;
5662;SDS011;2854;42.692;23.364;2023-04-07T05:52:18;43.73;;;12.97;;
5662;SDS011;2854;42.692;23.364;2023-04-07T05:54:43;36.50;;;13.20;;
5662;SDS011;2854;42.692;23.364;2023-04-07T05:57:09;28.67;;;9.87;;
5662;SDS011;2854;42.692;23.364;2023-04-07T05:59:34;21.07;;;9.20;;
5662;SDS011;2854;42.692;23.364;2023-04-07T06:02:01;11.90;;;6.50;;
5662;SDS011;2854;42.692;23.364;2023-04-07T06:04:26;11.90;;;7.50;;
5662;SDS011;2854;42.692;23.364;2023-04-07T06:06:51;19.37;;;9.57;;
5662;SDS011;2854;42.692;23.364;2023-04-07T06:09:19;16.50;;;9.60;;
5662;SDS011;2854;42.692;23.364;2023-04-07T06:11:45;25.90;;;11.37;;
5662;SDS011;2854;42.692;23.364;2023-04-07T06:14:11;14.13;;;8.80;;
5662;SDS011;2854;42.692;23.364;2023-04-07T06:16:36;12.43;;;7.50;;
5662;SDS011;2854;42.692;23.364;2023-04-07T06:19:01;13.20;;;8.07;;
5662;SDS011;2854;42.692;23.364;2023-04-07T06:21:27;9.87;;;7.13;;
5662;SDS011;2854;42.692;23.364;2023-04-07T06:23:52;9.90;;;7.60;;
5662;SDS011;2854;42.692;23.364;2023-04-07T06:26:18;21.30;;;8.10;;
5662;SDS011;2854;42.692;23.364;2023-04-07T06:28:43;10.20;;;7.37;;
5662;SDS011;2854;42.692;23.364;2023-04-07T06:31:08;8.27;;;6.33;;
5662;SDS011;2854;42.692;23.364;2023-04-07T06:33:33;15.60;;;8.73;;
5662;SDS011;2854;42.692;23.364;2023-04-07T06:35:59;13.07;;;7.60;;
5662;SDS011;2854;42.692;23.364;2023-04-07T06:38:24;17.03;;;8.90;;
5662;SDS011;2854;42.692;23.364;2023-04-07T06:40:50;9.03;;;6.20;;
5662;SDS011;2854;42.692;23.364;2023-04-07T06:43:15;5.77;;;4.67;;
5662;SDS011;2854;42.692;23.364;2023-04-07T06:45:40;11.00;;;6.40;;
5662;SDS011;2854;42.692;23.364;2023-04-07T06:48:06;13.97;;;7.17;;
5662;SDS011;2854;42.692;23.364;2023-04-07T06:50:31;12.70;;;7.10;;
5662;SDS011;2854;42.692;23.364;2023-04-07T06:52:56;6.87;;;5.57;;
5662;SDS011;2854;42.692;23.364;2023-04-07T06:55:21;8.97;;;5.20;;
5662;SDS011;2854;42.692;23.364;2023-04-07T06:57:47;7.77;;;5.70;;
5662;SDS011;2854;42.692;23.364;2023-04-07T07:00:12;11.23;;;5.60;;
5662;SDS011;2854;42.692;23.364;2023-04-07T07:02:38;6.50;;;6.00;;
5662;SDS011;2854;42.692;23.364;2023-04-07T07:05:04;7.33;;;5.33;;
5662;SDS011;2854;42.692;23.364;2023-04-07T07:07:29;12.33;;;7.00;;
5662;SDS011;2854;42.692;23.364;2023-04-07T07:09:55;6.37;;;5.30;;
5662;SDS011;2854;42.692;23.364;2023-04-07T07:12:20;15.97;;;7.87;;
5662;SDS011;2854;42.692;23.364;2023-04-07T07:14:45;12.70;;;6.33;;
5662;SDS011;2854;42.692;23.364;2023-04-07T07:17:11;18.63;;;6.47;;
5662;SDS011;2854;42.692;23.364;2023-04-07T07:19:36;10.20;;;6.33;;
5662;SDS011;2854;42.692;23.364;2023-04-07T07:22:01;9.60;;;6.63;;
5662;SDS011;2854;42.692;23.364;2023-04-07T07:24:28;9.33;;;5.83;;
5662;SDS011;2854;42.692;23.364;2023-04-07T07:26:53;9.17;;;6.87;;
5662;SDS011;2854;42.692;23.364;2023-04-07T07:29:19;6.93;;;5.60;;
5662;SDS011;2854;42.692;23.364;2023-04-07T07:31:44;7.17;;;5.37;;
5662;SDS011;2854;42.692;23.364;2023-04-07T07:34:09;9.07;;;5.63;;
5662;SDS011;2854;42.692;23.364;2023-04-07T07:36:34;14.17;;;6.03;;
5662;SDS011;2854;42.692;23.364;2023-04-07T07:39:00;15.40;;;7.27;;
5662;SDS011;2854;42.692;23.364;2023-04-07T07:41:25;8.73;;;5.73;;
5662;SDS011;2854;42.692;23.364;2023-04-07T07:43:51;9.50;;;6.20;;
5662;SDS011;2854;42.692;23.364;2023-04-07T07:46:16;18.50;;;6.60;;
5662;SDS011;2854;42.692;23.364;2023-04-07T07:48:42;12.33;;;6.10;;
5662;SDS011;2854;42.692;23.364;2023-04-07T07:51:07;10.07;;;5.90;;
5662;SDS011;2854;42.692;23.364;2023-04-07T07:53:32;7.07;;;5.00;;
5662;SDS011;2854;42.692;23.364;2023-04-07T07:55:58;14.63;;;5.70;;
5662;SDS011;2854;42.692;23.364;2023-04-07T07:58:23;8.30;;;5.27;;
5662;SDS011;2854;42.692;23.364;2023-04-07T08:00:48;6.13;;;5.10;;
5662;SDS011;2854;42.692;23.364;2023-04-07T08:03:13;7.03;;;4.13;;
5662;SDS011;2854;42.692;23.364;2023-04-07T08:05:39;5.40;;;4.10;;
5662;SDS011;2854;42.692;23.364;2023-04-07T08:08:05;5.97;;;3.57;;
5662;SDS011;2854;42.692;23.364;2023-04-07T08:10:31;4.40;;;4.03;;
5662;SDS011;2854;42.692;23.364;2023-04-07T08:12:56;3.93;;;3.23;;
5662;SDS011;2854;42.692;23.364;2023-04-07T08:15:22;3.80;;;3.40;;
5662;SDS011;2854;42.692;23.364;2023-04-07T08:17:47;4.03;;;3.60;;
5662;SDS011;2854;42.692;23.364;2023-04-07T08:20:12;5.00;;;3.47;;
5662;SDS011;2854;42.692;23.364;2023-04-07T08:22:37;3.80;;;3.33;;
5662;SDS011;2854;42.692;23.364;2023-04-07T08:25:03;3.60;;;2.97;;
5662;SDS011;2854;42.692;23.364;2023-04-07T08:27:28;2.90;;;2.70;;
5662;SDS011;2854;42.692;23.364;2023-04-07T08:30:00;7.40;;;3.37;;
5662;SDS011;2854;42.692;23.364;2023-04-07T08:32:44;3.50;;;3.20;;
5662;SDS011;2854;42.692;23.364;2023-04-07T08:35:10;2.60;;;2.40;;
5662;SDS011;2854;42.692;23.364;2023-04-07T08:37:36;8.23;;;3.57;;
5662;SDS011;2854;42.692;23.364;2023-04-07T08:40:02;6.00;;;3.13;;
5662;SDS011;2854;42.692;23.364;2023-04-07T08:42:28;4.00;;;2.90;;
5662;SDS011;2854;42.692;23.364;2023-04-07T08:45:03;4.77;;;2.73;;
5662;SDS011;2854;42.692;23.364;2023-04-07T08:47:29;5.13;;;3.93;;
5662;SDS011;2854;42.692;23.364;2023-04-07T08:49:56;2.47;;;2.27;;
5662;SDS011;2854;42.692;23.364;2023-04-07T08:52:26;3.43;;;3.10;;
5662;SDS011;2854;42.692;23.364;2023-04-07T08:54:51;7.47;;;2.97;;
5662;SDS011;2854;42.692;23.364;2023-04-07T08:57:17;4.33;;;2.93;;
5662;SDS011;2854;42.692;23.364;2023-04-07T08:59:42;2.53;;;2.10;;
5662;SDS011;2854;42.692;23.364;2023-04-07T09:02:09;4.10;;;2.97;;
5662;SDS011;2854;42.692;23.364;2023-04-07T09:04:35;4.70;;;3.27;;
5662;SDS011;2854;42.692;23.364;2023-04-07T09:07:00;4.07;;;3.47;;
5662;SDS011;2854;42.692;23.364;2023-04-07T09:09:26;4.97;;;2.80;;
5662;SDS011;2854;42.692;23.364;2023-04-07T09:11:51;10.67;;;3.63;;
5662;SDS011;2854;42.692;23.364;2023-04-07T09:14:16;3.30;;;3.00;;
5662;SDS011;2854;42.692;23.364;2023-04-07T09:16:42;4.20;;;3.13;;
5662;SDS011;2854;42.692;23.364;2023-04-07T09:19:08;6.23;;;3.43;;
5662;SDS011;2854;42.692;23.364;2023-04-07T09:21:46;4.40;;;3.83;;
5662;SDS011;2854;42.692;23.364;2023-04-07T09:26:45;4.50;;;3.10;;
5662;SDS011;2854;42.692;23.364;2023-04-07T09:29:14;3.20;;;2.90;;
5662;SDS011;2854;42.692;23.364;2023-04-07T09:31:49;3.70;;;3.40;;
5662;SDS011;2854;42.692;23.364;2023-04-07T09:34:22;2.77;;;2.57;;
5662;SDS011;2854;42.692;23.364;2023-04-07T09:36:48;5.73;;;3.10;;
5662;SDS011;2854;42.692;23.364;2023-04-07T09:39:13;5.27;;;3.43;;
5662;SDS011;2854;42.692;23.364;2023-04-07T09:41:38;8.83;;;3.73;;
5662;SDS011;2854;42.692;23.364;2023-04-07T09:44:04;4.27;;;3.10;;
5662;SDS011;2854;42.692;23.364;2023-04-07T09:46:30;4.27;;;3.90;;
5662;SDS011;2854;42.692;23.364;2023-04-07T09:49:05;6.17;;;4.00;;
5662;SDS011;2854;42.692;23.364;2023-04-07T09:51:30;4.03;;;3.57;;
5662;SDS011;2854;42.692;23.364;2023-04-07T09:53:57;4.27;;;3.50;;
5662;SDS011;2854;42.692;23.364;2023-04-07T09:56:23;6.10;;;4.00;;
5662;SDS011;2854;42.692;23.364;2023-04-07T09:58:48;5.73;;;3.73;;
5662;SDS011;2854;42.692;23.364;2023-04-07T10:01:17;4.77;;;3.90;;
5662;SDS011;2854;42.692;23.364;2023-04-07T10:03:44;4.80;;;3.50;;
5662;SDS011;2854;42.692;23.364;2023-04-07T10:06:10;7.07;;;3.60;;
5662;SDS011;2854;42.692;23.364;2023-04-07T10:08:36;3.30;;;3.00;;
5662;SDS011;2854;42.692;23.364;2023-04-07T10:11:02;6.20;;;4.03;;
5662;SDS011;2854;42.692;23.364;2023-04-07T10:13:28;4.30;;;3.10;;
5662;SDS011;2854;42.692;23.364;2023-04-07T10:15:53;4.40;;;3.80;;
5662;SDS011;2854;42.692;23.364;2023-04-07T10:18:19;3.47;;;3.17;;
5662;SDS011;2854;42.692;23.364;2023-04-07T10:20:45;5.60;;;4.37;;
5662;SDS011;2854;42.692;23.364;2023-04-07T10:23:18;3.70;;;3.40;;
5662;SDS011;2854;42.692;23.364;2023-04-07T10:25:45;7.60;;;3.67;;
5662;SDS011;2854;42.692;23.364;2023-04-07T10:28:12;3.50;;;3.20;;
5662;SDS011;2854;42.692;23.364;2023-04-07T10:30:38;3.63;;;3.33;;
5662;SDS011;2854;42.692;23.364;2023-04-07T10:33:04;3.30;;;3.00;;
5662;SDS011;2854;42.692;23.364;2023-04-07T10:36:01;3.40;;;3.10;;
5662;SDS011;2854;42.692;23.364;2023-04-07T10:38:14;5.50;;;3.57;;
5662;SDS011;2854;42.692;23.364;2023-04-07T10:40:40;5.33;;;3.60;;
5662;SDS011;2854;42.692;23.364;2023-04-07T10:43:07;14.40;;;3.53;;
5662;SDS011;2854;42.692;23.364;2023-04-07T10:48:10;4.90;;;3.90;;
5662;SDS011;2854;42.692;23.364;2023-04-07T10:50:39;4.40;;;3.43;;
5662;SDS011;2854;42.692;23.364;2023-04-07T10:53:08;7.37;;;4.77;;
5662;SDS011;2854;42.692;23.364;2023-04-07T11:01:28;3.67;;;3.20;;
5662;SDS011;2854;42.692;23.364;2023-04-07T11:03:38;4.17;;;3.87;;
5662;SDS011;2854;42.692;23.364;2023-04-07T11:06:04;7.37;;;3.67;;
5662;SDS011;2854;42.692;23.364;2023-04-07T11:10:58;4.20;;;3.80;;
5662;SDS011;2854;42.692;23.364;2023-04-07T11:13:23;5.40;;;4.23;;
5662;SDS011;2854;42.692;23.364;2023-04-07T11:15:50;5.50;;;3.50;;
5662;SDS011;2854;42.692;23.364;2023-04-07T11:20:45;3.13;;;2.90;;
5662;SDS011;2854;42.692;23.364;2023-04-07T11:23:11;6.10;;;3.80;;
5662;SDS011;2854;42.692;23.364;2023-04-07T11:25:36;5.30;;;3.60;;
5662;SDS011;2854;42.692;23.364;2023-04-07T11:28:02;7.67;;;3.87;;
5662;SDS011;2854;42.692;23.364;2023-04-07T11:30:27;4.50;;;4.10;;
5662;SDS011;2854;42.692;23.364;2023-04-07T11:32:53;6.33;;;4.53;;
5662;SDS011;2854;42.692;23.364;2023-04-07T11:35:18;3.73;;;3.43;;
5662;SDS011;2854;42.692;23.364;2023-04-07T11:37:43;6.07;;;3.97;;
5662;SDS011;2854;42.692;23.364;2023-04-07T11:40:09;7.40;;;5.00;;
5662;SDS011;2854;42.692;23.364;2023-04-07T11:42:38;5.10;;;4.60;;
5662;SDS011;2854;42.692;23.364;2023-04-07T11:45:05;3.50;;;3.20;;
5662;SDS011;2854;42.692;23.364;2023-04-07T11:47:34;4.73;;;4.33;;
5662;SDS011;2854;42.692;23.364;2023-04-07T11:49:59;4.37;;;3.87;;
5662;SDS011;2854;42.692;23.364;2023-04-07T11:52:25;4.13;;;3.67;;
5662;SDS011;2854;42.692;23.364;2023-04-07T11:54:51;5.83;;;3.63;;
5662;SDS011;2854;42.692;23.364;2023-04-07T11:57:26;4.73;;;3.90;;
5662;SDS011;2854;42.692;23.364;2023-04-07T12:00:04;5.10;;;3.70;;
5662;SDS011;2854;42.692;23.364;2023-04-07T12:02:31;4.13;;;3.73;;
5662;SDS011;2854;42.692;23.364;2023-04-07T12:04:56;4.10;;;3.63;;
5662;SDS011;2854;42.692;23.364;2023-04-07T12:07:21;3.83;;;3.50;;
5662;SDS011;2854;42.692;23.364;2023-04-07T12:09:47;5.33;;;4.30;;
5662;SDS011;2854;42.692;23.364;2023-04-07T12:12:12;4.33;;;3.93;;
5662;SDS011;2854;42.692;23.364;2023-04-07T12:14:38;6.10;;;4.20;;
5662;SDS011;2854;42.692;23.364;2023-04-07T12:17:04;7.37;;;4.43;;
5662;SDS011;2854;42.692;23.364;2023-04-07T12:19:31;5.60;;;3.73;;
5662;SDS011;2854;42.692;23.364;2023-04-07T12:21:59;4.53;;;3.90;;
5662;SDS011;2854;42.692;23.364;2023-04-07T12:24:25;4.10;;;3.43;;
5662;SDS011;2854;42.692;23.364;2023-04-07T12:26:51;4.70;;;3.13;;
5662;SDS011;2854;42.692;23.364;2023-04-07T12:29:16;4.80;;;4.33;;
5662;SDS011;2854;42.692;23.364;2023-04-07T12:31:43;3.77;;;3.47;;
5662;SDS011;2854;42.692;23.364;2023-04-07T12:34:09;6.03;;;4.10;;
5662;SDS011;2854;42.692;23.364;2023-04-07T12:36:34;4.37;;;3.90;;
5662;SDS011;2854;42.692;23.364;2023-04-07T12:39:00;6.17;;;3.30;;
5662;SDS011;2854;42.692;23.364;2023-04-07T12:41:25;3.87;;;3.57;;
5662;SDS011;2854;42.692;23.364;2023-04-07T12:43:51;4.77;;;4.00;;
5662;SDS011;2854;42.692;23.364;2023-04-07T12:46:17;4.53;;;4.00;;
5662;SDS011;2854;42.692;23.364;2023-04-07T12:48:43;6.07;;;3.97;;
5662;SDS011;2854;42.692;23.364;2023-04-07T12:51:08;5.67;;;4.70;;
5662;SDS011;2854;42.692;23.364;2023-04-07T12:53:33;5.00;;;4.33;;
5662;SDS011;2854;42.692;23.364;2023-04-07T12:55:58;3.90;;;3.60;;
5662;SDS011;2854;42.692;23.364;2023-04-07T12:58:24;4.47;;;4.07;;
5662;SDS011;2854;42.692;23.364;2023-04-07T13:00:51;4.03;;;3.43;;
5662;SDS011;2854;42.692;23.364;2023-04-07T13:03:17;4.30;;;3.90;;
5662;SDS011;2854;42.692;23.364;2023-04-07T13:05:42;15.20;;;3.80;;
5662;SDS011;2854;42.692;23.364;2023-04-07T13:08:07;4.47;;;4.03;;
5662;SDS011;2854;42.692;23.364;2023-04-07T13:10:33;9.30;;;4.27;;
5662;SDS011;2854;42.692;23.364;2023-04-07T13:12:58;7.90;;;4.60;;
5662;SDS011;2854;42.692;23.364;2023-04-07T13:15:24;6.87;;;3.93;;
5662;SDS011;2854;42.692;23.364;2023-04-07T13:18:00;4.20;;;3.70;;
5662;SDS011;2854;42.692;23.364;2023-04-07T13:20:26;4.40;;;4.00;;
5662;SDS011;2854;42.692;23.364;2023-04-07T13:22:52;4.77;;;3.97;;
5662;SDS011;2854;42.692;23.364;2023-04-07T13:25:17;3.90;;;3.60;;
5662;SDS011;2854;42.692;23.364;2023-04-07T13:27:42;10.30;;;5.90;;
5662;SDS011;2854;42.692;23.364;2023-04-07T13:30:08;4.37;;;3.90;;
5662;SDS011;2854;42.692;23.364;2023-04-07T13:32:33;4.30;;;3.90;;
5662;SDS011;2854;42.692;23.364;2023-04-07T13:34:58;7.43;;;5.07;;
5662;SDS011;2854;42.692;23.364;2023-04-07T13:37:24;6.50;;;4.63;;
5662;SDS011;2854;42.692;23.364;2023-04-07T13:39:49;6.57;;;5.57;;
5662;SDS011;2854;42.692;23.364;2023-04-07T13:42:14;5.00;;;4.60;;
5662;SDS011;2854;42.692;23.364;2023-04-07T13:44:44;4.03;;;3.73;;
5662;SDS011;2854;42.692;23.364;2023-04-07T13:47:12;6.40;;;4.70;;
5662;SDS011;2854;42.692;23.364;2023-04-07T13:49:39;7.43;;;3.87;;
5662;SDS011;2854;42.692;23.364;2023-04-07T13:52:04;4.07;;;3.63;;
5662;SDS011;2854;42.692;23.364;2023-04-07T13:54:29;6.73;;;4.10;;
5662;SDS011;2854;42.692;23.364;2023-04-07T13:56:55;5.57;;;3.97;;
5662;SDS011;2854;42.692;23.364;2023-04-07T13:59:20;5.20;;;4.47;;
5662;SDS011;2854;42.692;23.364;2023-04-07T14:01:45;8.43;;;3.87;;
5662;SDS011;2854;42.692;23.364;2023-04-07T14:04:11;6.20;;;4.93;;
5662;SDS011;2854;42.692;23.364;2023-04-07T14:06:37;4.80;;;3.83;;
5662;SDS011;2854;42.692;23.364;2023-04-07T14:09:02;4.47;;;3.90;;
5662;SDS011;2854;42.692;23.364;2023-04-07T14:11:28;5.23;;;4.10;;
5662;SDS011;2854;42.692;23.364;2023-04-07T14:13:53;5.07;;;4.00;;
5662;SDS011;2854;42.692;23.364;2023-04-07T14:16:19;5.53;;;4.90;;
5662;SDS011;2854;42.692;23.364;2023-04-07T14:18:44;5.27;;;4.77;;
5662;SDS011;2854;42.692;23.364;2023-04-07T14:21:11;6.23;;;4.43;;
5662;SDS011;2854;42.692;23.364;2023-04-07T14:23:36;6.17;;;4.17;;
5662;SDS011;2854;42.692;23.364;2023-04-07T14:26:01;4.70;;;4.27;;
5662;SDS011;2854;42.692;23.364;2023-04-07T14:28:27;5.93;;;4.10;;
5662;SDS011;2854;42.692;23.364;2023-04-07T14:30:52;6.50;;;3.97;;
5662;SDS011;2854;42.692;23.364;2023-04-07T14:33:18;5.60;;;5.00;;
5662;SDS011;2854;42.692;23.364;2023-04-07T14:35:44;7.83;;;5.20;;
5662;SDS011;2854;42.692;23.364;2023-04-07T14:38:09;6.30;;;5.33;;
5662;SDS011;2854;42.692;23.364;2023-04-07T14:40:35;5.30;;;4.10;;
5662;SDS011;2854;42.692;23.364;2023-04-07T14:43:00;4.73;;;3.63;;
5662;SDS011;2854;42.692;23.364;2023-04-07T14:45:26;4.50;;;4.10;;
5662;SDS011;2854;42.692;23.364;2023-04-07T14:47:52;7.30;;;4.00;;
5662;SDS011;2854;42.692;23.364;2023-04-07T14:50:17;4.73;;;4.33;;
5662;SDS011;2854;42.692;23.364;2023-04-07T14:52:42;6.23;;;3.90;;
5662;SDS011;2854;42.692;23.364;2023-04-07T14:55:08;6.93;;;4.30;;
5662;SDS011;2854;42.692;23.364;2023-04-07T14:57:33;6.80;;;4.00;;
5662;SDS011;2854;42.692;23.364;2023-04-07T14:59:59;8.33;;;5.17;;
5662;SDS011;2854;42.692;23.364;2023-04-07T15:02:24;7.40;;;5.53;;
5662;SDS011;2854;42.692;23.364;2023-04-07T15:04:49;5.00;;;3.83;;
5662;SDS011;2854;42.692;23.364;2023-04-07T15:07:14;9.03;;;5.73;;
5662;SDS011;2854;42.692;23.364;2023-04-07T15:09:40;4.33;;;3.93;;
5662;SDS011;2854;42.692;23.364;2023-04-07T15:12:05;7.00;;;5.17;;